Time;durP1;ratioP1;P1;durP2;ratioP2;P2;SDS_P1;SDS_P2;PMS_P1;PMS_P2;Temp;Humidity;BMP_temperature;BMP_pressure;BME280_temperature;BME280_humidity;BME280_pressure;Samples;Min_cycle;Max_cycle;Signal;HPM_P1;HPM_P2
2021/03/29 00:00:25;;;;;;;2.28;0.80;;;15.70;65.90;;;;;;4196773;28;20080;-43
2021/03/29 00:02:47;;;;;;;0.00;0.00;;;15.60;65.90;;;;;;4197176;28;20048;-45
2021/03/29 00:05:10;;;;;;;0.00;0.00;;;15.60;65.90;;;;;;4197464;28;20513;-43
2021/03/29 00:07:33;;;;;;;0.00;0.00;;;15.60;66.00;;;;;;4197410;28;20414;-44
2021/03/29 00:09:56;;;;;;;0.00;0.00;;;15.60;66.00;;;;;;4197188;28;20044;-44
2021/03/29 00:12:18;;;;;;;0.00;0.00;;;15.60;66.00;;;;;;4197453;28;20052;-43
2021/03/29 00:14:41;;;;;;;0.00;0.00;;;15.60;66.00;;;;;;4197019;28;20060;-44
2021/03/29 00:17:03;;;;;;;0.00;0.00;;;15.60;66.00;;;;;;4197481;28;20056;-43
2021/03/29 00:19:27;;;;;;;0.00;0.00;;;15.50;65.90;;;;;;4197507;28;20056;-44
2021/03/29 00:21:49;;;;;;;0.00;0.00;;;15.60;66.20;;;;;;4180640;28;20127;-43
2021/03/29 00:24:11;;;;;;;0.00;0.00;;;15.50;66.10;;;;;;4181091;28;20053;-44
2021/03/29 00:26:32;;;;;;;;;;;15.60;66.10;;;;;;4197671;28;20057;-44
2021/03/29 00:28:52;;;;;;;0.03;0.03;;;15.60;66.30;;;;;;4197046;28;19920;-44
2021/03/29 00:31:13;;;;;;;0.00;0.00;;;15.50;66.20;;;;;;4197325;28;20052;-44
2021/03/29 00:33:36;;;;;;;0.35;0.35;;;15.50;66.20;;;;;;4197188;28;20045;-43
2021/03/29 00:35:59;;;;;;;0.00;0.00;;;15.50;66.30;;;;;;4180419;28;20057;-44
2021/03/29 00:38:22;;;;;;;0.00;0.00;;;15.50;66.20;;;;;;4179480;28;20056;-44
2021/03/29 00:40:46;;;;;;;1.35;1.35;;;15.50;66.20;;;;;;4192621;28;20119;-44
2021/03/29 00:43:12;;;;;;;0.00;0.00;;;15.50;66.20;;;;;;4197042;28;20080;-45
2021/03/29 00:45:35;;;;;;;0.10;0.10;;;15.50;66.20;;;;;;4196546;28;20219;-44
2021/03/29 00:47:57;;;;;;;0.00;0.00;;;15.50;66.20;;;;;;4196774;28;20483;-46
2021/03/29 00:50:26;;;;;;;0.00;0.00;;;15.50;66.30;;;;;;4196901;28;20418;-43
2021/03/29 00:52:49;;;;;;;0.00;0.00;;;15.50;66.40;;;;;;4195675;28;20048;-43
2021/03/29 00:55:11;;;;;;;0.00;0.00;;;15.50;66.40;;;;;;4196536;28;20574;-43
2021/03/29 00:57:33;;;;;;;0.00;0.00;;;15.50;66.40;;;;;;4196809;28;20079;-48
2021/03/29 00:59:54;;;;;;;0.00;0.00;;;15.50;66.50;;;;;;4190684;28;20110;-46
2021/03/29 01:02:18;;;;;;;0.00;0.00;;;15.40;66.40;;;;;;4180021;28;20048;-44
2021/03/29 01:04:39;;;;;;;0.00;0.00;;;15.40;66.40;;;;;;4184756;28;20084;-44
2021/03/29 01:07:01;;;;;;;0.47;0.47;;;15.40;66.50;;;;;;4196582;28;20072;-44
2021/03/29 01:09:25;;;;;;;0.00;0.00;;;15.40;66.40;;;;;;4196310;28;20099;-44
2021/03/29 01:11:51;;;;;;;0.00;0.00;;;15.40;66.50;;;;;;4196469;28;20060;-51
2021/03/29 01:14:17;;;;;;;0.00;0.00;;;15.40;66.60;;;;;;4196407;28;20056;-48
2021/03/29 01:16:41;;;;;;;0.00;0.00;;;15.40;66.50;;;;;;4179977;28;20053;-44
2021/03/29 01:19:11;;;;;;;0.00;0.00;;;15.40;66.50;;;;;;4192999;28;20063;-45
2021/03/29 01:21:45;;;;;;;0.00;0.00;;;15.40;66.50;;;;;;4196089;28;20076;-44
2021/03/29 01:24:13;;;;;;;0.00;0.00;;;15.40;66.50;;;;;;4195910;28;20049;-44
2021/03/29 01:26:39;;;;;;;0.15;0.15;;;15.40;66.50;;;;;;4196044;28;20070;-44
2021/03/29 01:29:01;;;;;;;0.00;0.00;;;15.40;66.50;;;;;;4179565;28;20057;-43
2021/03/29 01:31:22;;;;;;;0.00;0.00;;;15.30;66.60;;;;;;4179794;28;20052;-43
2021/03/29 01:33:45;;;;;;;0.00;0.00;;;15.30;66.60;;;;;;4178584;28;20077;-44
2021/03/29 01:36:07;;;;;;;0.00;0.00;;;15.30;66.70;;;;;;4196079;28;20053;-43
2021/03/29 01:38:31;;;;;;;0.00;0.00;;;15.40;66.60;;;;;;4195971;28;20059;-43
2021/03/29 01:40:54;;;;;;;0.00;0.00;;;15.50;66.40;;;;;;4196017;28;20048;-44
2021/03/29 01:43:16;;;;;;;0.00;0.00;;;15.60;66.00;;;;;;4194852;28;20090;-42
2021/03/29 01:45:39;;;;;;;0.10;0.10;;;15.70;65.80;;;;;;4196029;28;20110;-43
2021/03/29 01:48:01;;;;;;;0.00;0.00;;;15.80;65.60;;;;;;4181783;28;20063;-44
2021/03/29 01:50:26;;;;;;;0.00;0.00;;;15.80;66.30;;;;;;4195832;28;20068;-44
2021/03/29 01:52:47;;;;;;;0.00;0.00;;;15.80;65.40;;;;;;4195933;28;20048;-44
2021/03/29 01:55:10;;;;;;;0.00;0.00;;;15.80;65.30;;;;;;4195477;28;20067;-43
2021/03/29 01:57:31;;;;;;;0.00;0.00;;;15.80;65.30;;;;;;4195218;28;20045;-43
2021/03/29 01:59:54;;;;;;;0.00;0.00;;;15.70;65.20;;;;;;4195709;28;20517;-47
2021/03/29 02:02:15;;;;;;;0.00;0.00;;;15.70;65.40;;;;;;4195736;28;20056;-43
2021/03/29 02:04:37;;;;;;;0.00;0.00;;;15.70;65.60;;;;;;4194501;28;20044;-43
2021/03/29 02:07:00;;;;;;;0.00;0.00;;;15.70;65.50;;;;;;4195787;28;20061;-46
2021/03/29 02:09:24;;;;;;;0.00;0.00;;;15.70;65.60;;;;;;4195346;28;20392;-44
2021/03/29 02:11:47;;;;;;;0.00;0.00;;;15.70;65.60;;;;;;4195587;28;20075;-44
2021/03/29 02:14:09;;;;;;;0.00;0.00;;;15.70;65.70;;;;;;4195628;28;20060;-43
2021/03/29 02:16:31;;;;;;;0.40;0.40;;;15.60;65.70;;;;;;4195169;28;20090;-43
2021/03/29 02:18:56;;;;;;;0.00;0.00;;;15.60;65.70;;;;;;4178974;28;20407;-44
2021/03/29 02:21:20;;;;;;;0.93;0.90;;;15.60;65.90;;;;;;4178906;28;20156;-44
2021/03/29 02:23:42;;;;;;;0.00;0.00;;;15.60;65.90;;;;;;4179317;28;20419;-44
2021/03/29 02:26:05;;;;;;;0.00;0.00;;;15.60;65.90;;;;;;4179080;28;20085;-43
2021/03/29 02:28:26;;;;;;;0.30;0.30;;;15.60;66.10;;;;;;4178973;28;20087;-43
2021/03/29 02:30:48;;;;;;;0.00;0.00;;;15.50;66.10;;;;;;4182656;28;20052;-43
2021/03/29 02:33:11;;;;;;;0.08;0.08;;;15.60;66.20;;;;;;4182544;28;20160;-43
2021/03/29 02:35:33;;;;;;;0.00;0.00;;;15.50;66.10;;;;;;4197049;28;20063;-43
2021/03/29 02:37:57;;;;;;;0.10;0.10;;;15.50;66.10;;;;;;4182351;28;20088;-43
2021/03/29 02:40:20;;;;;;;0.00;0.00;;;15.60;66.20;;;;;;4196581;28;20820;-44
2021/03/29 02:42:46;;;;;;;6.50;0.52;;;15.70;66.10;;;;;;4198909;28;20052;-46
2021/03/29 02:45:10;;;;;;;0.10;0.10;;;15.80;65.60;;;;;;4198439;28;20536;-46
2021/03/29 02:47:32;;;;;;;0.25;0.25;;;15.80;65.30;;;;;;4197709;28;20072;-46
2021/03/29 02:49:56;;;;;;;0.00;0.00;;;15.90;65.20;;;;;;4198801;28;20769;-44
2021/03/29 02:52:18;;;;;;;0.00;0.00;;;15.90;65.10;;;;;;4198754;28;20052;-44
2021/03/29 02:54:40;;;;;;;0.00;0.00;;;16.00;65.00;;;;;;4198354;28;20395;-44
2021/03/29 02:57:02;;;;;;;0.00;0.00;;;16.00;64.70;;;;;;4182152;28;20053;-43
2021/03/29 02:59:25;;;;;;;0.10;0.10;;;16.00;64.60;;;;;;4181934;28;20064;-44
2021/03/29 03:01:48;;;;;;;0.00;0.00;;;16.10;64.50;;;;;;4181843;28;20053;-43
2021/03/29 03:04:12;;;;;;;0.00;0.00;;;16.10;64.40;;;;;;4183132;28;20511;-43
2021/03/29 03:06:35;;;;;;;0.00;0.00;;;16.10;64.50;;;;;;4181866;28;20048;-43
2021/03/29 03:08:58;;;;;;;0.00;0.00;;;16.00;64.40;;;;;;4186505;28;20060;-44
2021/03/29 03:11:20;;;;;;;0.30;0.30;;;16.00;64.40;;;;;;4198456;28;20063;-43
2021/03/29 03:13:43;;;;;;;0.00;0.00;;;16.00;64.60;;;;;;4198211;28;20797;-43
2021/03/29 03:16:06;;;;;;;0.10;0.10;;;16.00;64.60;;;;;;4198085;28;20414;-43
2021/03/29 03:18:27;;;;;;;0.85;0.75;;;15.90;64.70;;;;;;4198369;28;20055;-44
2021/03/29 03:20:48;;;;;;;0.00;0.00;;;15.90;64.80;;;;;;4198380;28;20495;-43
2021/03/29 03:23:17;;;;;;;0.13;0.13;;;15.90;64.90;;;;;;4197296;28;20517;-44
2021/03/29 03:25:41;;;;;;;0.00;0.00;;;15.90;65.00;;;;;;4184078;28;20049;-44
2021/03/29 03:28:05;;;;;;;0.00;0.00;;;15.90;65.10;;;;;;4181713;28;20053;-50
2021/03/29 03:30:30;;;;;;;0.10;0.10;;;15.90;64.80;;;;;;4181809;28;20152;-43
2021/03/29 03:32:52;;;;;;;0.20;0.20;;;16.00;64.40;;;;;;4181768;28;20132;-48
2021/03/29 03:35:16;;;;;;;0.00;0.00;;;16.10;64.30;;;;;;4181486;28;20099;-46
2021/03/29 03:37:39;;;;;;;0.00;0.00;;;16.10;64.20;;;;;;4181593;28;20076;-46
2021/03/29 03:40:01;;;;;;;0.00;0.00;;;16.10;64.20;;;;;;4191685;28;20056;-45
2021/03/29 03:42:22;;;;;;;0.00;0.00;;;16.10;64.30;;;;;;4197618;28;20059;-49
2021/03/29 03:44:44;;;;;;;0.00;0.00;;;16.00;64.30;;;;;;4197824;28;20569;-45
2021/03/29 03:47:06;;;;;;;0.65;0.60;;;16.10;64.30;;;;;;4197810;28;20083;-47
2021/03/29 03:49:28;;;;;;;0.22;0.22;;;16.10;64.30;;;;;;4197721;28;20060;-43
2021/03/29 03:51:50;;;;;;;0.00;0.00;;;16.10;64.30;;;;;;4197622;28;20052;-44
2021/03/29 03:54:12;;;;;;;0.47;0.47;;;16.10;65.30;;;;;;4197653;28;20392;-46
2021/03/29 03:56:34;;;;;;;0.00;0.00;;;16.00;64.40;;;;;;4197901;28;20059;-48
2021/03/29 03:58:55;;;;;;;0.00;0.00;;;16.00;64.50;;;;;;4188611;28;20061;-43
2021/03/29 04:01:17;;;;;;;0.00;0.00;;;16.00;64.60;;;;;;4181792;28;20851;-44
2021/03/29 04:03:38;;;;;;;0.00;0.00;;;16.10;64.50;;;;;;4197668;28;20075;-43
2021/03/29 04:05:59;;;;;;;0.00;0.00;;;16.20;64.20;;;;;;4197460;28;20087;-44
2021/03/29 04:08:36;;;;;;;0.15;0.15;;;16.20;64.00;;;;;;4187196;28;20496;-45
2021/03/29 04:10:59;;;;;;;0.00;0.00;;;16.20;63.90;;;;;;4197439;28;20147;-43
2021/03/29 04:13:25;;;;;;;0.00;0.00;;;16.20;63.90;;;;;;4197340;28;20096;-43
2021/03/29 04:15:46;;;;;;;0.00;0.00;;;16.20;64.00;;;;;;4180946;28;20792;-43
2021/03/29 04:18:09;;;;;;;0.00;0.00;;;16.20;64.30;;;;;;4180798;28;20550;-44
2021/03/29 04:20:30;;;;;;;0.00;0.00;;;16.20;63.90;;;;;;4180922;28;20049;-43
2021/03/29 04:22:52;;;;;;;0.00;0.00;;;16.20;63.90;;;;;;4181097;28;20053;-44
2021/03/29 04:25:14;;;;;;;0.00;0.00;;;16.20;64.00;;;;;;4197262;28;20084;-49
2021/03/29 04:27:35;;;;;;;0.10;0.10;;;16.20;64.10;;;;;;4197188;28;20113;-44
2021/03/29 04:29:57;;;;;;;0.00;0.00;;;16.10;64.20;;;;;;4187602;28;20427;-44
2021/03/29 04:32:18;;;;;;;0.00;0.00;;;16.10;64.20;;;;;;4180553;28;20059;-45
2021/03/29 04:34:39;;;;;;;0.05;0.05;;;16.10;64.30;;;;;;4195822;28;20106;-45
2021/03/29 04:36:59;;;;;;;0.00;0.00;;;16.00;64.40;;;;;;4197129;28;20048;-43
2021/03/29 04:39:21;;;;;;;0.30;0.30;;;16.00;64.50;;;;;;4196888;28;20057;-43
2021/03/29 04:41:41;;;;;;;0.10;0.10;;;16.00;64.70;;;;;;4197066;28;20580;-44
2021/03/29 04:44:03;;;;;;;0.00;0.00;;;15.90;64.80;;;;;;4196981;28;20514;-43
2021/03/29 04:46:25;;;;;;;0.00;0.00;;;16.00;64.70;;;;;;4196240;28;20045;-46
2021/03/29 04:48:46;;;;;;;0.00;0.00;;;16.00;64.70;;;;;;4196859;28;20056;-43
2021/03/29 04:51:07;;;;;;;0.10;0.10;;;16.00;64.60;;;;;;4195792;28;20078;-43
2021/03/29 04:53:28;;;;;;;0.00;0.00;;;16.00;64.50;;;;;;4196362;28;20056;-43
2021/03/29 04:55:50;;;;;;;0.03;0.03;;;16.00;64.50;;;;;;4196852;28;20686;-44
2021/03/29 04:58:11;;;;;;;0.00;0.00;;;16.00;64.50;;;;;;4196746;28;20142;-44
2021/03/29 05:00:33;;;;;;;2.55;0.65;;;16.10;64.50;;;;;;4196342;28;20143;-44
2021/03/29 05:02:55;;;;;;;0.10;0.10;;;16.10;64.20;;;;;;4196371;28;20080;-43
2021/03/29 05:05:16;;;;;;;0.00;0.00;;;16.20;64.60;;;;;;4196543;28;20127;-43
2021/03/29 05:07:38;;;;;;;0.00;0.00;;;16.20;64.00;;;;;;4196441;28;20419;-41
2021/03/29 05:09:59;;;;;;;0.00;0.00;;;16.20;63.80;;;;;;4196447;28;20502;-43
2021/03/29 05:12:22;;;;;;;0.13;0.13;;;16.30;64.30;;;;;;4195143;28;20564;-43
2021/03/29 05:14:44;;;;;;;0.00;0.00;;;16.30;64.40;;;;;;4196226;28;20091;-44
2021/03/29 05:17:06;;;;;;;0.00;0.00;;;16.20;64.30;;;;;;4192759;28;20127;-43
2021/03/29 05:19:29;;;;;;;0.00;0.00;;;16.30;64.40;;;;;;4196305;28;20507;-43
2021/03/29 05:21:50;;;;;;;0.20;0.20;;;16.30;64.30;;;;;;4196123;28;20048;-43
2021/03/29 05:24:13;;;;;;;0.00;0.00;;;16.30;64.10;;;;;;4196146;28;20494;-43
2021/03/29 05:26:35;;;;;;;0.00;0.00;;;16.20;64.10;;;;;;4188219;28;20488;-43
2021/03/29 05:28:56;;;;;;;0.00;0.00;;;16.30;64.10;;;;;;4195109;28;20045;-43
2021/03/29 05:31:17;;;;;;;;;;;16.20;64.00;;;;;;4196826;28;20052;-43
2021/03/29 05:33:38;;;;;;;0.00;0.00;;;16.20;64.20;;;;;;4195254;28;19924;-45
2021/03/29 05:36:00;;;;;;;0.20;0.20;;;16.10;64.30;;;;;;4191314;28;20061;-43
2021/03/29 05:38:21;;;;;;;0.77;0.75;;;16.10;64.50;;;;;;4179319;28;20499;-43
2021/03/29 05:40:42;;;;;;;0.08;0.08;;;16.10;64.80;;;;;;4179364;28;20080;-43
2021/03/29 05:43:05;;;;;;;0.00;0.00;;;16.00;64.80;;;;;;4179546;28;20064;-43
2021/03/29 05:45:30;;;;;;;0.38;0.38;;;16.00;64.90;;;;;;4179510;28;20068;-43
2021/03/29 05:47:52;;;;;;;0.00;0.00;;;16.00;65.00;;;;;;4179457;28;20049;-49
2021/03/29 05:50:17;;;;;;;0.00;0.00;;;15.90;65.20;;;;;;4179447;28;20052;-47
2021/03/29 05:52:40;;;;;;;0.47;0.22;;;15.90;65.40;;;;;;4179461;28;20049;-50
2021/03/29 05:55:01;;;;;;;0.10;0.10;;;15.90;65.60;;;;;;4180294;28;20170;-42
2021/03/29 05:57:23;;;;;;;0.00;0.00;;;15.80;65.50;;;;;;4180353;28;20130;-42
2021/03/29 05:59:44;;;;;;;0.00;0.00;;;15.80;65.60;;;;;;4187275;28;20102;-43
2021/03/29 06:02:06;;;;;;;0.10;0.10;;;15.80;65.70;;;;;;4195980;28;20048;-43
2021/03/29 06:04:41;;;;;;;0.00;0.00;;;15.80;65.90;;;;;;4195152;28;20086;-43
2021/03/29 06:07:10;;;;;;;0.00;0.00;;;15.70;65.90;;;;;;4195888;28;20045;-43
2021/03/29 06:09:32;;;;;;;3.25;2.95;;;15.70;66.00;;;;;;4195512;28;20114;-45
2021/03/29 06:11:53;;;;;;;0.65;0.52;;;15.70;66.00;;;;;;4195805;28;20056;-43
2021/03/29 06:14:16;;;;;;;0.05;0.05;;;15.70;66.10;;;;;;4195760;28;20060;-44
2021/03/29 06:16:57;;;;;;;0.00;0.00;;;15.60;66.10;;;;;;4195692;28;20052;-46
2021/03/29 06:19:35;;;;;;;1.23;0.65;;;15.60;66.30;;;;;;4195681;28;20060;-42
2021/03/29 06:22:07;;;;;;;0.00;0.00;;;15.60;66.30;;;;;;4192183;28;20080;-44
2021/03/29 06:24:28;;;;;;;0.50;0.50;;;15.60;66.50;;;;;;4195558;28;20048;-46
2021/03/29 06:27:03;;;;;;;2.00;1.85;;;15.60;66.50;;;;;;4195277;28;20052;-43
2021/03/29 06:29:25;;;;;;;0.00;0.00;;;15.60;66.40;;;;;;4194944;28;20084;-43
2021/03/29 06:31:46;;;;;;;0.75;0.65;;;15.50;66.50;;;;;;4194623;28;20060;-43
2021/03/29 06:34:07;;;;;;;0.10;0.10;;;15.50;66.60;;;;;;4195047;28;20048;-44
2021/03/29 06:36:33;;;;;;;;;;;15.50;66.80;;;;;;4196108;28;20100;-44
2021/03/29 06:38:55;;;;;;;0.45;0.45;;;15.60;66.90;;;;;;4195578;28;20445;-43
2021/03/29 06:41:25;;;;;;;0.00;0.00;;;15.60;67.10;;;;;;4195495;28;20063;-43
2021/03/29 06:43:46;;;;;;;0.03;0.03;;;15.60;67.20;;;;;;4195409;28;20091;-43
2021/03/29 06:46:19;;;;;;;0.00;0.00;;;15.60;67.20;;;;;;4194450;28;20056;-43
2021/03/29 06:48:40;;;;;;;0.10;0.10;;;15.60;67.30;;;;;;4195293;28;20056;-44
2021/03/29 06:51:12;;;;;;;0.00;0.00;;;15.50;67.20;;;;;;4195131;28;20056;-43
2021/03/29 06:53:34;;;;;;;0.10;0.10;;;15.60;67.30;;;;;;4195256;28;20395;-43
2021/03/29 06:55:57;;;;;;;0.25;0.25;;;15.60;67.30;;;;;;4195356;28;20076;-43
2021/03/29 06:58:25;;;;;;;0.00;0.00;;;15.50;67.20;;;;;;4195586;28;20052;-43
2021/03/29 07:00:55;;;;;;;0.22;0.15;;;15.50;67.30;;;;;;4194976;28;20057;-43
2021/03/29 07:03:16;;;;;;;0.10;0.10;;;15.50;67.30;;;;;;4195377;28;20056;-43
2021/03/29 07:05:37;;;;;;;0.00;0.00;;;15.50;67.20;;;;;;4195314;28;20044;-43
2021/03/29 07:07:59;;;;;;;0.00;0.00;;;15.50;67.30;;;;;;4195271;28;20508;-43
2021/03/29 07:10:21;;;;;;;0.10;0.10;;;15.50;67.50;;;;;;4194971;28;20064;-44
2021/03/29 07:12:45;;;;;;;0.20;0.20;;;15.50;67.40;;;;;;4195228;28;20052;-43
2021/03/29 07:15:08;;;;;;;0.00;0.00;;;15.50;67.40;;;;;;4196128;28;20053;-44
2021/03/29 07:17:32;;;;;;;0.00;0.00;;;15.50;67.50;;;;;;4198363;28;20061;-45
2021/03/29 07:19:54;;;;;;;0.00;0.00;;;15.40;67.40;;;;;;4198432;28;20075;-44
2021/03/29 07:22:18;;;;;;;0.00;0.00;;;15.50;67.40;;;;;;4198138;28;20426;-44
2021/03/29 07:24:39;;;;;;;0.00;0.00;;;15.50;67.50;;;;;;4198172;28;20044;-44
2021/03/29 07:27:02;;;;;;;0.00;0.00;;;15.50;67.50;;;;;;4197177;28;20060;-43
2021/03/29 07:29:25;;;;;;;0.13;0.13;;;15.60;67.40;;;;;;4193713;28;20494;-45
2021/03/29 07:31:48;;;;;;;0.85;0.85;;;15.60;67.40;;;;;;4197706;28;20056;-47
2021/03/29 07:34:10;;;;;;;0.28;0.28;;;15.60;67.30;;;;;;4197465;28;20113;-48
2021/03/29 07:36:42;;;;;;;0.00;0.00;;;15.60;67.40;;;;;;4190825;28;20521;-49
2021/03/29 07:39:03;;;;;;;0.00;0.00;;;15.60;67.40;;;;;;4197707;28;20061;-51
2021/03/29 07:41:24;;;;;;;0.00;0.00;;;15.60;67.50;;;;;;4197935;28;20059;-48
2021/03/29 07:44:10;;;;;;;0.00;0.00;;;15.60;67.50;;;;;;4196644;28;20048;-48
2021/03/29 07:46:37;;;;;;;0.00;0.00;;;15.60;67.50;;;;;;4197948;28;20557;-43
2021/03/29 07:48:58;;;;;;;0.63;0.63;;;15.60;67.60;;;;;;4197637;28;20052;-44
2021/03/29 07:51:23;;;;;;;0.00;0.00;;;15.60;67.60;;;;;;4197986;28;20059;-44
2021/03/29 07:53:47;;;;;;;0.93;0.93;;;15.60;67.70;;;;;;4197411;28;20048;-44
2021/03/29 07:56:09;;;;;;;0.98;0.98;;;15.70;67.80;;;;;;4186090;28;20048;-44
2021/03/29 07:58:42;;;;;;;0.00;0.00;;;15.70;67.80;;;;;;4197778;28;20067;-46
2021/03/29 08:01:05;;;;;;;0.00;0.00;;;15.70;67.80;;;;;;4181145;28;20072;-51
2021/03/29 08:04:01;;;;;;;0.00;0.00;;;15.70;67.80;;;;;;4181185;28;20450;-42
2021/03/29 08:06:46;;;;;;;0.10;0.10;;;15.70;67.80;;;;;;4181144;28;20427;-44
2021/03/29 08:09:09;;;;;;;0.10;0.10;;;15.70;67.80;;;;;;4193507;28;20060;-44
2021/03/29 08:12:00;;;;;;;0.55;0.55;;;15.70;67.80;;;;;;4197242;28;20059;-44
2021/03/29 08:14:41;;;;;;;0.10;0.10;;;15.70;67.90;;;;;;4196808;28;20495;-46
2021/03/29 08:17:42;;;;;;;0.00;0.00;;;15.80;67.90;;;;;;4196759;28;20040;-44
2021/03/29 08:20:12;;;;;;;0.15;0.15;;;15.80;68.00;;;;;;4194009;28;20055;-43
2021/03/29 08:22:34;;;;;;;3.10;2.92;;;15.80;68.00;;;;;;4196811;28;20123;-42
2021/03/29 08:24:55;;;;;;;0.00;0.00;;;15.80;68.00;;;;;;4191296;28;20142;-42
2021/03/29 08:27:30;;;;;;;0.00;0.00;;;15.90;68.00;;;;;;4196602;28;20114;-45
2021/03/29 08:29:56;;;;;;;0.40;0.40;;;15.80;68.00;;;;;;4196559;28;20060;-44
2021/03/29 08:32:26;;;;;;;0.90;0.90;;;15.90;68.00;;;;;;4192710;28;20059;-44
2021/03/29 08:35:03;;;;;;;0.00;0.00;;;15.90;68.10;;;;;;4196786;28;20049;-45
2021/03/29 08:37:27;;;;;;;0.50;0.50;;;15.90;68.20;;;;;;4196827;28;20055;-44
2021/03/29 08:39:51;;;;;;;0.32;0.32;;;15.90;68.10;;;;;;4196916;28;20056;-45
2021/03/29 08:42:14;;;;;;;0.95;0.45;;;15.90;68.10;;;;;;4197026;28;20052;-45
2021/03/29 08:44:38;;;;;;;0.70;0.65;;;15.90;68.40;;;;;;4196651;28;20546;-46
2021/03/29 08:46:59;;;;;;;0.52;0.52;;;15.90;68.30;;;;;;4197054;28;20487;-44
2021/03/29 08:49:20;;;;;;;0.00;0.00;;;15.90;68.20;;;;;;4196398;28;20059;-44
2021/03/29 08:51:41;;;;;;;0.05;0.05;;;15.90;68.30;;;;;;4196977;28;20056;-44
2021/03/29 08:54:06;;;;;;;0.00;0.00;;;15.90;68.30;;;;;;4196319;28;20059;-46
2021/03/29 08:56:37;;;;;;;0.00;0.00;;;16.00;68.40;;;;;;4196399;28;20442;-44
2021/03/29 08:58:59;;;;;;;0.00;0.00;;;16.00;68.40;;;;;;4196507;28;20391;-44
2021/03/29 09:01:27;;;;;;;0.22;0.22;;;16.00;68.40;;;;;;4196609;28;20092;-46
2021/03/29 09:04:00;;;;;;;0.90;0.77;;;16.00;68.40;;;;;;4195584;28;20450;-42
2021/03/29 09:06:22;;;;;;;0.00;0.00;;;16.00;68.40;;;;;;4196602;28;20082;-42
2021/03/29 09:08:43;;;;;;;0.00;0.00;;;16.00;68.40;;;;;;4195900;28;20477;-42
2021/03/29 09:11:04;;;;;;;0.15;0.15;;;16.10;68.30;;;;;;4196579;28;20517;-41
2021/03/29 09:13:26;;;;;;;0.10;0.10;;;16.10;68.30;;;;;;4195509;28;20040;-42
2021/03/29 09:15:49;;;;;;;0.00;0.00;;;16.10;68.40;;;;;;4196180;28;20052;-43
2021/03/29 09:18:11;;;;;;;0.25;0.25;;;16.10;68.60;;;;;;4196437;28;20049;-42
2021/03/29 09:20:35;;;;;;;0.55;0.55;;;16.10;68.90;;;;;;4196222;28;20056;-42
2021/03/29 09:22:56;;;;;;;1.10;1.00;;;16.10;69.00;;;;;;4195858;28;20414;-42
2021/03/29 09:25:25;;;;;;;0.00;0.00;;;16.10;69.00;;;;;;4195121;28;20060;-42
2021/03/29 09:27:49;;;;;;;1.98;1.02;;;16.10;69.10;;;;;;4196245;28;20048;-42
2021/03/29 09:30:12;;;;;;;0.00;0.00;;;16.10;69.00;;;;;;4195534;28;20044;-43
2021/03/29 09:32:35;;;;;;;0.32;0.32;;;16.10;69.00;;;;;;4186964;28;20257;-45
2021/03/29 09:34:57;;;;;;;0.22;0.22;;;16.20;69.00;;;;;;4195908;28;20481;-43
2021/03/29 09:37:19;;;;;;;0.22;0.22;;;16.20;69.00;;;;;;4196179;28;20080;-43
2021/03/29 09:39:41;;;;;;;0.30;0.30;;;16.20;68.90;;;;;;4194935;28;20140;-44
2021/03/29 09:42:03;;;;;;;0.00;0.00;;;16.20;68.80;;;;;;4195941;28;20052;-46
2021/03/29 09:44:28;;;;;;;0.00;0.00;;;16.20;68.80;;;;;;4195888;28;20056;-47
2021/03/29 09:46:53;;;;;;;2.05;1.15;;;16.30;68.80;;;;;;4195956;28;20062;-43
2021/03/29 09:49:16;;;;;;;0.45;0.45;;;16.30;68.70;;;;;;4195592;28;20056;-46
2021/03/29 09:51:41;;;;;;;0.38;0.38;;;16.30;68.60;;;;;;4193617;28;20048;-51
2021/03/29 09:54:23;;;;;;;0.15;0.15;;;16.30;68.60;;;;;;4179368;28;20057;-47
2021/03/29 09:56:45;;;;;;;0.10;0.10;;;16.30;68.70;;;;;;4186117;28;20144;-46
2021/03/29 09:59:06;;;;;;;0.17;0.17;;;16.30;68.60;;;;;;4195859;28;20056;-47
2021/03/29 10:01:28;;;;;;;2.45;1.38;;;16.30;68.60;;;;;;4195036;28;20063;-49
2021/03/29 10:03:55;;;;;;;0.20;0.20;;;16.30;68.50;;;;;;4195209;28;20514;-43
2021/03/29 10:06:17;;;;;;;0.00;0.00;;;16.30;68.50;;;;;;4195482;28;20050;-44
2021/03/29 10:08:38;;;;;;;0.90;0.90;;;16.40;68.90;;;;;;4195511;28;20052;-48
2021/03/29 10:11:01;;;;;;;0.10;0.10;;;16.40;68.80;;;;;;4195868;28;20540;-47
2021/03/29 10:13:32;;;;;;;0.00;0.00;;;16.40;68.70;;;;;;4195233;28;20132;-43
2021/03/29 10:15:53;;;;;;;0.63;0.63;;;16.50;68.80;;;;;;4195248;28;20044;-46
2021/03/29 10:18:15;;;;;;;0.00;0.00;;;16.50;68.60;;;;;;4195123;28;20596;-49
2021/03/29 10:20:39;;;;;;;0.00;0.00;;;16.50;68.40;;;;;;4194652;28;20068;-42
2021/03/29 10:23:24;;;;;;;0.28;0.28;;;16.50;68.20;;;;;;4195091;28;20132;-45
2021/03/29 10:26:15;;;;;;;0.10;0.10;;;16.50;68.20;;;;;;4178999;28;20143;-42
2021/03/29 10:28:37;;;;;;;0.30;0.30;;;16.50;68.30;;;;;;4188051;28;20059;-43
2021/03/29 10:30:58;;;;;;;0.05;0.05;;;16.60;68.30;;;;;;4195236;28;20411;-42
2021/03/29 10:33:19;;;;;;;0.38;0.38;;;16.60;68.20;;;;;;4193387;28;20487;-43
2021/03/29 10:35:42;;;;;;;0.00;0.00;;;16.60;68.10;;;;;;4195164;28;20060;-43
2021/03/29 10:38:04;;;;;;;2.40;0.95;;;16.60;68.10;;;;;;4189303;28;20499;-44
2021/03/29 10:40:25;;;;;;;0.00;0.00;;;16.60;68.00;;;;;;4184449;28;20045;-48
2021/03/29 10:42:46;;;;;;;0.17;0.17;;;16.60;68.00;;;;;;4195344;28;20059;-45
2021/03/29 10:45:10;;;;;;;0.00;0.00;;;16.60;68.00;;;;;;4195104;28;20503;-48
2021/03/29 10:47:31;;;;;;;0.47;0.47;;;16.60;68.20;;;;;;4195443;28;20057;-45
2021/03/29 10:49:52;;;;;;;1.00;1.00;;;16.60;68.30;;;;;;4195625;28;20067;-45
2021/03/29 10:52:16;;;;;;;0.10;0.10;;;16.60;68.30;;;;;;4182218;28;20045;-51
2021/03/29 10:54:37;;;;;;;1.88;1.77;;;16.60;68.50;;;;;;4196542;28;20049;-44
2021/03/29 10:56:59;;;;;;;0.00;0.00;;;16.60;68.50;;;;;;4198600;28;20059;-47
2021/03/29 10:59:20;;;;;;;0.00;0.00;;;16.60;68.60;;;;;;4198614;28;20131;-42
2021/03/29 11:01:41;;;;;;;0.00;0.00;;;16.70;68.60;;;;;;4198497;28;20067;-45
2021/03/29 11:04:03;;;;;;;;;;;16.70;68.50;;;;;;4182433;28;20049;-42
2021/03/29 11:06:24;;;;;;;0.00;0.00;;;16.70;68.50;;;;;;4182016;28;19925;-40
2021/03/29 11:08:46;;;;;;;;;;;16.70;68.70;;;;;;4182128;28;20505;-43
2021/03/29 11:11:07;;;;;;;0.00;0.00;;;16.70;68.90;;;;;;4182061;28;20375;-42
2021/03/29 11:13:28;;;;;;;0.28;0.28;;;16.70;68.90;;;;;;4191589;28;20052;-45
2021/03/29 11:15:49;;;;;;;1.25;1.25;;;16.70;69.00;;;;;;4196207;28;20095;-43
2021/03/29 11:18:11;;;;;;;0.65;0.65;;;16.80;69.10;;;;;;4188679;28;20129;-43
2021/03/29 11:20:32;;;;;;;0.10;0.10;;;16.70;69.20;;;;;;4197392;28;20075;-42
2021/03/29 11:22:53;;;;;;;0.00;0.00;;;16.70;69.30;;;;;;4198080;28;20102;-43
2021/03/29 11:25:16;;;;;;;;;;;16.70;69.30;;;;;;4198428;28;20106;-43
2021/03/29 11:27:37;;;;;;;0.03;0.03;;;16.70;69.40;;;;;;4198213;28;19920;-42
2021/03/29 11:29:58;;;;;;;0.00;0.00;;;16.70;69.60;;;;;;4197064;28;20525;-42
2021/03/29 11:32:19;;;;;;;0.00;0.00;;;16.70;69.60;;;;;;4198130;28;20097;-42
2021/03/29 11:34:40;;;;;;;0.32;0.32;;;16.70;69.60;;;;;;4197985;28;20049;-43
2021/03/29 11:37:04;;;;;;;0.00;0.00;;;16.70;69.60;;;;;;4198108;28;20513;-44
2021/03/29 11:39:25;;;;;;;2.20;1.25;;;16.70;69.60;;;;;;4198143;28;20499;-42
2021/03/29 11:41:47;;;;;;;1.85;1.65;;;16.80;69.70;;;;;;4196027;28;20048;-44
2021/03/29 11:44:08;;;;;;;0.00;0.00;;;16.80;69.70;;;;;;4197536;28;20490;-43
2021/03/29 11:46:29;;;;;;;;;;;16.80;70.20;;;;;;4198252;28;20502;-43
2021/03/29 11:48:50;;;;;;;0.38;0.38;;;16.80;69.80;;;;;;4197970;28;20011;-42
2021/03/29 11:51:12;;;;;;;0.17;0.17;;;16.90;69.70;;;;;;4197788;28;20422;-42
2021/03/29 11:53:35;;;;;;;0.30;0.30;;;16.90;69.50;;;;;;4197594;28;20083;-45
2021/03/29 11:55:58;;;;;;;0.10;0.10;;;16.90;69.50;;;;;;4197836;28;20067;-42
2021/03/29 11:58:20;;;;;;;0.52;0.50;;;16.90;69.40;;;;;;4197811;28;20579;-42
2021/03/29 12:00:51;;;;;;;0.00;0.00;;;16.90;69.40;;;;;;4197501;28;20102;-43
2021/03/29 12:03:17;;;;;;;0.52;0.52;;;16.90;69.30;;;;;;4197310;28;20056;-42
2021/03/29 12:05:44;;;;;;;0.20;0.20;;;16.90;69.30;;;;;;4197633;28;20058;-42
2021/03/29 12:08:14;;;;;;;0.32;0.22;;;16.90;69.50;;;;;;4197153;28;20045;-42
2021/03/29 12:13:15;;;;;;;1.08;0.63;;;16.90;69.80;;;;;;4197450;28;20048;-43
2021/03/29 12:15:37;;;;;;;0.00;0.00;;;16.90;69.80;;;;;;4194657;28;20556;-45
2021/03/29 12:17:58;;;;;;;0.00;0.00;;;17.00;69.70;;;;;;4197644;28;20126;-42
2021/03/29 12:20:19;;;;;;;;;;;16.90;69.60;;;;;;4197459;28;20089;-43
2021/03/29 12:22:43;;;;;;;0.20;0.20;;;17.00;69.70;;;;;;4197256;28;19964;-42
2021/03/29 12:25:05;;;;;;;0.15;0.15;;;16.90;69.60;;;;;;4197273;28;20140;-43
2021/03/29 12:27:26;;;;;;;0.00;0.00;;;17.00;69.60;;;;;;4196881;28;20060;-45
2021/03/29 12:29:49;;;;;;;0.30;0.30;;;17.00;69.60;;;;;;4196824;28;20059;-42
2021/03/29 12:32:14;;;;;;;0.65;0.65;;;17.00;69.60;;;;;;4195541;28;20052;-43